createdAt,value
2022-09-05T00:03:00.071Z,81.55
2022-09-05T00:12:33.577Z,81.77
2022-09-05T00:24:24.661Z,83.62
2022-09-05T00:31:54.090Z,83.65
2022-09-05T00:41:16.191Z,84.13
2022-09-05T00:50:50.387Z,84.62
2022-09-05T01:00:26.031Z,85.58
2022-09-05T01:09:58.570Z,85.66
2022-09-05T01:19:31.811Z,86.10
2022-09-05T01:29:17.499Z,87.36
2022-09-05T01:38:39.960Z,87.12
2022-09-05T01:48:15.584Z,87.54
2022-09-05T01:57:49.145Z,86.74
2022-09-05T02:07:30.648Z,87.65
2022-09-05T02:16:56.762Z,87.57
2022-09-05T02:26:30.167Z,88.82
2022-09-05T02:36:03.666Z,89.30
2022-09-05T02:45:38.626Z,89.26
2022-09-05T02:57:31.478Z,89.85
2022-09-05T03:04:44.334Z,90.21
2022-09-05T03:14:18.352Z,90.31
2022-09-05T03:23:52.076Z,90.36
2022-09-05T03:33:26.492Z,90.96
2022-09-05T03:43:02.150Z,91.09
2022-09-05T03:56:41.982Z,91.01
2022-09-05T04:02:57.996Z,91.37
2022-09-05T04:11:41.932Z,91.40
2022-09-05T04:21:15.932Z,91.42
2022-09-05T04:30:49.827Z,92.29
2022-09-05T04:40:25.791Z,91.69
2022-09-05T04:49:57.127Z,91.79
2022-09-05T05:00:58.954Z,91.42
2022-09-05T05:09:05.700Z,91.92
2022-09-05T05:18:54.474Z,92.81
2022-09-05T05:28:22.615Z,92.74
2022-09-05T05:37:48.562Z,93.33
2022-09-05T05:47:29.945Z,93.36
2022-09-05T05:56:58.677Z,92.17
2022-09-05T06:06:31.317Z,91.44
2022-09-05T06:16:06.550Z,90.80
2022-09-05T06:17:07.942Z,90.80
2022-09-05T06:18:12.034Z,90.72
2022-09-05T06:28:01.417Z,90.96
2022-09-05T06:37:17.497Z,91.10
2022-09-05T06:46:53.015Z,91.04
2022-09-05T06:56:26.525Z,91.79
2022-09-05T07:06:00.665Z,92.85
2022-09-05T07:15:34.925Z,92.57
2022-09-05T07:25:11.275Z,90.91
2022-09-05T07:26:20.488Z,90.85
2022-09-05T07:27:19.192Z,90.91
2022-09-05T07:36:59.223Z,88.84
2022-09-05T07:37:55.896Z,88.72
2022-09-05T07:39:07.117Z,88.42
2022-09-05T07:40:03.979Z,88.52
2022-09-05T07:41:03.333Z,87.97
2022-09-05T07:42:05.810Z,87.02
2022-09-05T07:55:13.816Z,87.01
2022-09-05T07:56:48.396Z,86.98
2022-09-05T08:02:15.766Z,84.14
2022-09-05T08:03:18.351Z,84.14
2022-09-05T08:04:20.816Z,83.97
2022-09-05T08:05:34.705Z,83.57
2022-09-05T08:06:37.588Z,80.73
2022-09-05T08:07:46.346Z,79.47
2022-09-05T08:08:34.785Z,79.85
2022-09-05T08:10:07.351Z,80.56
2022-09-05T08:11:21.982Z,79.46
2022-09-05T08:11:43.524Z,77.11
2022-09-05T08:13:00.637Z,76.57
2022-09-05T08:13:48.373Z,77.36
2022-09-05T08:14:52.384Z,77.72
2022-09-05T08:16:02.969Z,77.21
2022-09-05T08:16:57.384Z,76.45
2022-09-05T08:17:59.727Z,76.41
2022-09-05T08:19:02.279Z,76.41
2022-09-05T08:20:08.370Z,76.73
2022-09-05T08:21:08.771Z,75.65
2022-09-05T08:22:11.123Z,75.79
2022-09-05T08:23:15.223Z,76.31
2022-09-05T08:24:17.560Z,75.83
2022-09-05T08:25:20.101Z,74.70
2022-09-05T08:26:22.444Z,74.42
2022-09-05T08:27:24.937Z,74.94
2022-09-05T08:28:35.391Z,73.47
2022-09-05T08:29:32.981Z,72.92
2022-09-05T08:30:37.019Z,72.98
2022-09-05T08:31:42.036Z,73.19
2022-09-05T08:32:41.815Z,73.58
2022-09-05T08:33:44.339Z,72.93
2022-09-05T08:34:48.415Z,72.11
2022-09-05T08:35:57.677Z,72.09
2022-09-05T08:46:38.392Z,73.43
2022-09-05T08:46:38.551Z,73.44
2022-09-05T08:47:33.057Z,72.64
2022-09-05T08:48:33.410Z,73.46
2022-09-05T08:49:36.753Z,72.74
2022-09-05T08:50:39.924Z,71.93
2022-09-05T08:51:46.138Z,71.28
2022-09-05T08:52:47.774Z,70.93
2022-09-05T08:53:50.316Z,71.14
2022-09-05T08:54:58.332Z,71.49
2022-09-05T08:55:58.201Z,71.84
2022-09-05T08:57:00.467Z,72.33
2022-09-05T08:58:02.945Z,72.78
2022-09-05T08:59:28.723Z,71.95
2022-09-05T09:00:19.943Z,72.02
2022-09-05T09:01:13.383Z,72.40
2022-09-05T09:02:45.878Z,72.17
2022-09-05T09:03:19.782Z,71.45
2022-09-05T09:04:26.762Z,70.36
2022-09-05T09:05:24.690Z,70.35
2022-09-05T09:06:27.784Z,68.54
2022-09-05T09:07:48.294Z,67.42
2022-09-05T09:08:32.092Z,68.25
2022-09-05T09:09:34.535Z,67.73
2022-09-05T09:10:36.957Z,67.52
2022-09-05T09:11:39.380Z,67.34
2022-09-05T09:12:41.928Z,67.67
2022-09-05T09:13:44.442Z,66.88
2022-09-05T09:14:46.884Z,67.39
2022-09-05T09:15:51.009Z,68.76
2022-09-05T09:16:53.316Z,68.98
2022-09-05T09:17:57.412Z,67.87
2022-09-05T09:18:59.742Z,66.50
2022-09-05T09:20:02.217Z,65.06
2022-09-05T09:21:04.675Z,65.10
2022-09-05T09:22:07.175Z,66.13
2022-09-05T09:23:30.394Z,66.65
2022-09-05T09:24:14.750Z,64.20
2022-09-05T09:25:21.147Z,65.33
2022-09-05T09:26:20.916Z,64.17
2022-09-05T09:27:27.288Z,62.13
2022-09-05T09:28:47.104Z,62.98
2022-09-05T09:29:30.769Z,63.16
2022-09-05T09:30:33.286Z,63.72
2022-09-05T09:31:35.700Z,63.18
2022-09-05T09:32:39.687Z,63.36
2022-09-05T09:33:43.629Z,63.28
2022-09-05T09:34:47.635Z,62.30
2022-09-05T09:35:50.007Z,61.72
2022-09-05T09:36:54.028Z,61.15
2022-09-05T09:37:59.308Z,62.52
2022-09-05T09:38:58.882Z,61.17
2022-09-05T09:40:01.460Z,61.71
2022-09-05T09:41:03.816Z,61.99
2022-09-05T09:42:07.920Z,61.53
2022-09-05T09:43:11.914Z,63.31
2022-09-05T09:44:14.253Z,63.78
2022-09-05T09:45:21.455Z,62.07
2022-09-05T09:46:20.713Z,62.67
2022-09-05T09:47:23.173Z,60.06
2022-09-05T09:48:27.307Z,59.47
2022-09-05T09:49:31.248Z,58.50
2022-09-05T09:50:33.671Z,59.64
2022-09-05T09:51:36.123Z,60.55
2022-09-05T09:52:38.584Z,62.91
2022-09-05T09:53:42.695Z,59.03
2022-09-05T09:54:45.039Z,57.02
2022-09-05T09:55:47.502Z,56.69
2022-09-05T09:56:51.520Z,56.21
2022-09-05T09:57:53.900Z,55.41
2022-09-05T09:58:57.973Z,56.45
2022-09-05T10:00:00.408Z,55.32
2022-09-05T10:10:37.181Z,54.62
2022-09-05T10:11:15.913Z,54.60
2022-09-05T10:11:55.352Z,54.65
2022-09-05T10:12:41.007Z,53.46
2022-09-05T10:13:43.481Z,53.15
2022-09-05T10:14:50.169Z,53.40
2022-09-05T10:15:50.232Z,53.32
2022-09-05T10:16:54.163Z,55.26
2022-09-05T10:17:56.561Z,54.43
2022-09-05T10:18:59.116Z,52.87
2022-09-05T10:20:08.467Z,53.80
2022-09-05T10:21:15.929Z,52.64
2022-09-05T10:23:12.248Z,51.99
2022-09-05T10:24:16.230Z,52.12
2022-09-05T10:25:19.933Z,52.80
2022-09-05T10:26:22.668Z,52.75
2022-09-05T10:27:26.655Z,50.75
2022-09-05T10:28:29.037Z,50.37
2022-09-05T10:29:37.289Z,51.09
2022-09-05T10:31:52.772Z,50.97
2022-09-05T10:32:24.614Z,50.42
2022-09-05T10:35:05.422Z,51.44
2022-09-05T10:35:05.554Z,51.55
2022-09-05T10:35:11.938Z,50.32
2022-09-05T10:35:49.468Z,50.29
2022-09-05T10:36:52.308Z,49.81
2022-09-05T10:37:54.293Z,49.76
2022-09-05T10:38:58.422Z,49.68
2022-09-05T10:40:00.832Z,50.52
2022-09-05T10:41:11.056Z,49.78
2022-09-05T10:42:05.817Z,52.67
2022-09-05T10:43:08.307Z,52.84
2022-09-05T10:44:10.766Z,50.36
2022-09-05T10:45:14.930Z,50.10
2022-09-05T10:46:40.017Z,50.09
2022-09-05T10:47:21.455Z,50.56
2022-09-05T10:48:23.711Z,50.92
2022-09-05T10:49:27.322Z,50.09
2022-09-05T10:50:30.192Z,50.17
2022-09-05T10:51:32.570Z,49.56
2022-09-05T10:52:36.656Z,51.06
2022-09-05T10:53:40.127Z,50.77
2022-09-05T10:54:41.525Z,51.15
2022-09-05T10:55:47.678Z,51.51
2022-09-05T10:56:48.004Z,50.95
2022-09-05T10:57:50.449Z,50.36
2022-09-05T11:00:35.510Z,50.81
2022-09-05T11:01:34.758Z,49.94
2022-09-05T11:02:16.744Z,50.25
2022-09-05T11:02:25.284Z,53.01
2022-09-05T11:03:06.032Z,51.29
2022-09-05T11:04:08.399Z,50.92
2022-09-05T11:05:10.888Z,51.19
2022-09-05T11:06:13.297Z,51.33
2022-09-05T11:07:15.797Z,50.17
2022-09-05T11:08:18.329Z,50.57
2022-09-05T11:09:22.460Z,50.16
2022-09-05T11:10:26.343Z,50.85
2022-09-05T11:11:35.021Z,50.94
2022-09-05T11:12:31.159Z,50.67
2022-09-05T11:13:33.692Z,51.69
2022-09-05T11:14:36.174Z,50.99
2022-09-05T11:15:39.255Z,51.59
2022-09-05T11:16:41.331Z,51.23
2022-09-05T11:17:43.818Z,52.04
2022-09-05T11:18:55.804Z,52.47
2022-09-05T11:19:50.360Z,51.65
2022-09-05T11:20:52.764Z,50.88
2022-09-05T11:22:05.318Z,50.36
2022-09-05T11:22:59.320Z,51.70
2022-09-05T11:24:03.283Z,50.86
2022-09-05T11:25:05.762Z,51.36
2022-09-05T11:26:09.860Z,50.28
2022-09-05T11:27:24.092Z,50.63
2022-09-05T11:28:16.445Z,49.42
2022-09-05T11:29:18.898Z,50.31
2022-09-05T11:30:29.653Z,49.76
2022-09-05T11:31:24.781Z,49.43
2022-09-05T11:33:17.366Z,50.01
2022-09-05T11:34:34.201Z,49.47
2022-09-05T11:39:00.749Z,48.75
2022-09-05T11:39:12.121Z,48.17
2022-09-05T11:40:01.342Z,49.38
2022-09-05T11:40:01.377Z,48.11
2022-09-05T11:40:01.673Z,48.40
2022-09-05T11:40:26.877Z,48.59
2022-09-05T11:41:01.291Z,46.92
2022-09-05T11:41:53.521Z,46.85
2022-09-05T11:42:57.464Z,47.33
2022-09-05T11:44:02.459Z,46.20
2022-09-05T11:45:03.900Z,46.13
2022-09-05T11:46:06.274Z,46.07
2022-09-05T11:47:14.314Z,47.79
2022-09-05T11:48:14.251Z,49.10
2022-09-05T11:49:16.621Z,46.45
2022-09-05T11:50:20.777Z,47.74
2022-09-05T11:51:26.142Z,48.43
2022-09-05T11:52:25.549Z,46.53
2022-09-05T11:53:29.664Z,48.49
2022-09-05T11:54:32.104Z,47.23
2022-09-05T11:55:36.184Z,48.03
2022-09-05T11:56:41.914Z,45.32
2022-09-05T11:57:42.706Z,46.52
2022-09-05T11:58:45.944Z,45.79
2022-09-05T11:59:47.592Z,46.91
2022-09-05T12:00:50.045Z,46.02
2022-09-05T12:01:52.565Z,46.67
2022-09-05T12:02:56.735Z,45.03
2022-09-05T12:04:02.216Z,44.75
2022-09-05T12:05:48.076Z,46.10
2022-09-05T12:06:05.710Z,44.23
2022-09-05T12:07:15.674Z,43.53
2022-09-05T12:08:10.672Z,43.09
2022-09-05T12:09:16.174Z,43.70
2022-09-05T12:10:43.814Z,42.90
2022-09-05T12:11:19.647Z,43.50
2022-09-05T12:12:27.114Z,43.91
2022-09-05T12:13:26.420Z,44.19
2022-09-05T12:14:27.170Z,43.26
2022-09-05T12:15:31.400Z,42.92
2022-09-05T12:16:33.874Z,43.66
2022-09-05T12:17:37.831Z,43.87
2022-09-05T12:18:40.207Z,43.32
2022-09-05T12:19:42.784Z,43.06
2022-09-05T12:20:45.371Z,43.96
2022-09-05T12:21:47.857Z,43.68
2022-09-05T12:22:50.407Z,43.75
2022-09-05T12:23:54.014Z,41.47
2022-09-05T12:25:25.289Z,42.90
2022-09-05T12:26:05.374Z,41.95
2022-09-05T12:27:37.786Z,41.40
2022-09-05T12:28:15.257Z,41.29
2022-09-05T12:29:28.451Z,41.19
2022-09-05T12:30:09.628Z,42.16
2022-09-05T12:31:55.814Z,42.81
2022-09-05T12:33:07.501Z,42.66
2022-09-05T12:34:11.947Z,43.27
2022-09-05T12:36:03.326Z,42.17
2022-09-05T12:36:09.574Z,42.67
2022-09-05T12:39:07.259Z,42.09
2022-09-05T12:39:45.256Z,41.90
2022-09-05T12:40:19.794Z,42.62
2022-09-05T12:40:38.267Z,41.53
2022-09-05T12:40:58.680Z,41.89
2022-09-05T12:41:48.684Z,41.53
2022-09-05T12:42:55.953Z,41.69
2022-09-05T12:44:29.893Z,42.85
2022-09-05T12:44:50.307Z,40.58
2022-09-05T12:46:56.094Z,40.04
2022-09-05T12:48:00.021Z,40.00
2022-09-05T12:49:07.113Z,40.91
2022-09-05T12:50:14.675Z,40.68
2022-09-05T12:51:10.445Z,43.77
2022-09-05T12:52:14.429Z,42.27
2022-09-05T12:53:17.068Z,41.51
2022-09-05T12:54:24.595Z,41.40
2022-09-05T12:55:23.485Z,41.58
2022-09-05T12:56:59.646Z,42.84
2022-09-05T12:59:30.035Z,40.43
2022-09-05T13:00:27.621Z,39.81
2022-09-05T13:01:33.368Z,41.08
2022-09-05T13:02:59.632Z,41.86
2022-09-05T13:03:10.231Z,40.02
2022-09-05T13:03:10.580Z,40.64
2022-09-05T13:03:59.600Z,42.07
2022-09-05T13:04:46.426Z,41.57
2022-09-05T13:05:50.378Z,38.46
2022-09-05T13:06:54.328Z,41.06
2022-09-05T13:07:56.686Z,41.20
2022-09-05T13:09:00.184Z,40.01
2022-09-05T13:10:44.606Z,36.68
2022-09-05T13:19:35.021Z,36.22
2022-09-05T13:20:39.221Z,36.45
2022-09-05T13:21:41.581Z,37.36
2022-09-05T13:22:48.763Z,37.42
2022-09-05T13:23:50.526Z,36.89
2022-09-05T13:24:50.739Z,37.86
2022-09-05T13:25:53.039Z,37.94
2022-09-05T13:26:55.617Z,37.74
2022-09-05T13:27:58.151Z,38.21
2022-09-05T13:29:10.227Z,38.54
2022-09-05T13:30:51.880Z,32.85
2022-09-05T13:35:31.679Z,32.51
2022-09-05T13:36:43.441Z,32.05
2022-09-05T13:37:57.408Z,34.36
2022-09-05T13:37:57.701Z,34.40
2022-09-05T13:38:08.763Z,33.90
2022-09-05T13:38:09.202Z,33.60
2022-09-05T13:38:09.578Z,33.39
2022-09-05T13:38:46.004Z,33.66
2022-09-05T13:39:31.661Z,31.89
2022-09-05T13:40:35.796Z,33.25
2022-09-05T13:41:39.676Z,32.75
2022-09-05T13:42:42.639Z,33.23
2022-09-05T13:43:44.635Z,30.54
2022-09-05T13:44:48.735Z,31.09
2022-09-05T13:45:53.049Z,32.70
2022-09-05T13:46:58.423Z,32.38
2022-09-05T13:47:57.684Z,32.94
2022-09-05T13:50:05.254Z,34.09
2022-09-05T13:51:06.726Z,34.18
2022-09-05T13:52:10.683Z,33.49
2022-09-05T13:53:15.447Z,32.97
2022-09-05T13:54:15.608Z,31.81
2022-09-05T13:55:18.043Z,32.41
2022-09-05T13:56:20.624Z,33.84
2022-09-05T13:57:31.563Z,35.63
2022-09-05T13:58:25.687Z,34.81
2022-09-05T13:59:29.758Z,35.09
2022-09-05T14:00:32.090Z,34.12
2022-09-05T14:01:34.925Z,32.52
2022-09-05T14:03:29.314Z,30.75
2022-09-05T14:03:40.449Z,32.80
2022-09-05T14:05:44.928Z,30.37
2022-09-05T14:06:48.598Z,31.63
2022-09-05T14:07:51.580Z,29.99
2022-09-05T14:09:56.426Z,29.87
2022-09-05T14:10:58.937Z,29.18
2022-09-05T14:12:03.102Z,31.86
2022-09-05T14:13:05.425Z,32.87
2022-09-05T14:14:11.170Z,30.54
2022-09-05T14:15:14.428Z,30.30
2022-09-05T14:16:16.012Z,32.10
2022-09-05T14:18:22.126Z,29.67
2022-09-05T14:19:23.478Z,29.80
2022-09-05T14:20:27.596Z,30.02
2022-09-05T14:21:31.555Z,29.97
2022-09-05T14:22:33.915Z,30.72
2022-09-05T14:23:36.450Z,31.06
2022-09-05T14:24:39.099Z,29.60
2022-09-05T14:25:43.056Z,30.40
2022-09-05T14:26:45.421Z,31.57
2022-09-05T14:27:47.935Z,31.67
2022-09-05T14:28:50.446Z,31.36
2022-09-05T14:29:52.933Z,30.03
2022-09-05T14:32:09.325Z,30.44
2022-09-05T14:34:04.237Z,30.11
2022-09-05T14:37:37.745Z,29.53
2022-09-05T14:37:38.295Z,28.48
2022-09-05T14:37:47.387Z,29.03
2022-09-05T14:37:47.858Z,29.66
2022-09-05T14:37:57.520Z,30.00
2022-09-05T14:38:15.992Z,30.25
2022-09-05T14:39:17.304Z,31.42
2022-09-05T14:40:29.417Z,31.22
2022-09-05T14:41:23.893Z,32.84
2022-09-05T14:42:26.296Z,31.75
2022-09-05T14:43:28.810Z,30.11
2022-09-05T14:44:33.956Z,30.16
2022-09-05T14:45:36.301Z,29.13
2022-09-05T14:46:38.919Z,28.88
2022-09-05T14:47:41.331Z,28.72
2022-09-05T14:48:43.841Z,28.45
2022-09-05T14:49:46.422Z,27.93
2022-09-05T14:50:48.846Z,29.33
2022-09-05T14:51:53.038Z,27.96
2022-09-05T14:56:24.474Z,28.43
2022-09-05T14:57:50.482Z,30.20
2022-09-05T15:02:01.038Z,28.80
2022-09-05T15:02:40.179Z,29.20
2022-09-05T15:02:46.816Z,31.14
2022-09-05T15:02:46.914Z,28.92
2022-09-05T15:02:59.741Z,29.21
2022-09-05T15:03:22.680Z,28.71
2022-09-05T15:04:33.007Z,30.14
2022-09-05T15:05:28.351Z,29.37
2022-09-05T15:06:33.191Z,28.72
2022-09-05T15:07:34.484Z,30.57
2022-09-05T15:11:25.173Z,29.67
2022-09-05T15:11:26.108Z,29.01
2022-09-05T15:11:26.159Z,28.10
2022-09-05T15:12:19.180Z,29.96
2022-09-05T15:12:52.892Z,31.31
2022-09-05T15:13:53.052Z,30.23
2022-09-05T15:14:55.526Z,30.08
2022-09-05T15:16:02.160Z,27.62
2022-09-05T15:17:03.078Z,29.12
2022-09-05T15:18:06.340Z,27.34
2022-09-05T15:19:08.773Z,28.63
2022-09-05T15:20:11.266Z,26.64
2022-09-05T15:21:13.748Z,28.87
2022-09-05T15:22:16.303Z,28.11
2022-09-05T15:23:18.690Z,28.57
2022-09-05T15:24:22.188Z,29.11
2022-09-05T15:25:24.650Z,29.55
2022-09-05T15:26:28.744Z,26.51
2022-09-05T15:27:31.085Z,27.96
2022-09-05T15:28:34.580Z,27.41
2022-09-05T15:29:36.987Z,26.83
2022-09-05T15:30:39.506Z,27.42
2022-09-05T15:31:42.057Z,29.11
2022-09-05T15:32:47.347Z,27.18
2022-09-05T15:33:47.051Z,28.05
2022-09-05T15:34:51.190Z,28.16
2022-09-05T15:35:55.137Z,28.27
2022-09-05T15:37:09.203Z,26.63
2022-09-05T15:38:01.592Z,25.57
2022-09-05T15:39:11.912Z,25.40
2022-09-05T15:40:22.192Z,27.65
2022-09-05T15:41:16.973Z,25.83
2022-09-05T15:42:19.340Z,26.57
2022-09-05T15:43:21.874Z,25.23
2022-09-05T15:44:26.011Z,25.06
2022-09-05T15:45:29.575Z,25.66
2022-09-05T15:46:35.605Z,26.29
2022-09-05T15:47:36.118Z,25.43
2022-09-05T15:48:40.153Z,25.41
2022-09-05T15:49:42.491Z,24.43
2022-09-05T15:50:45.083Z,26.22
2022-09-05T15:51:47.529Z,26.60
2022-09-05T15:52:52.655Z,28.14
2022-09-05T15:53:52.625Z,29.10
2022-09-05T15:54:55.186Z,27.60
2022-09-05T15:55:59.964Z,27.07
2022-09-05T15:57:01.717Z,27.52
2022-09-05T15:58:04.149Z,26.52
2022-09-05T15:59:06.611Z,26.79
2022-09-05T16:00:09.161Z,25.06
2022-09-05T16:01:15.585Z,24.80
2022-09-05T16:02:16.729Z,24.88
2022-09-05T16:03:43.980Z,24.85
2022-09-05T16:06:06.945Z,24.29
2022-09-05T16:07:32.841Z,26.39
2022-09-05T16:10:18.206Z,29.58
2022-09-05T16:10:32.782Z,29.75
2022-09-05T16:10:32.908Z,27.48
2022-09-05T16:10:44.187Z,28.46
2022-09-05T16:12:46.668Z,28.42
2022-09-05T16:13:52.022Z,30.23
2022-09-05T16:15:23.128Z,29.86
2022-09-05T16:17:36.398Z,28.47
2022-09-05T16:19:40.968Z,28.44
2022-09-05T16:23:12.429Z,29.67
2022-09-05T16:23:21.525Z,30.26
2022-09-05T16:23:21.754Z,30.76
2022-09-05T16:23:22.785Z,30.68
2022-09-05T16:30:42.740Z,36.94
2022-09-05T16:31:46.943Z,33.88
2022-09-05T16:32:51.079Z,35.66
2022-09-05T16:33:51.726Z,34.66
2022-09-05T16:34:54.239Z,38.25
2022-09-05T16:35:56.693Z,38.51
2022-09-05T16:37:08.080Z,39.85
2022-09-05T16:38:01.679Z,39.23
2022-09-05T16:39:04.157Z,40.88
2022-09-05T16:40:06.819Z,40.14
2022-09-05T16:41:10.926Z,40.84
2022-09-05T16:42:14.693Z,39.94
2022-09-05T16:43:18.073Z,38.34
2022-09-05T16:44:20.372Z,40.22
2022-09-05T16:45:22.965Z,41.03
2022-09-05T16:46:25.328Z,40.10
2022-09-05T16:47:27.939Z,41.10
2022-09-05T16:48:32.069Z,42.20
2022-09-05T16:49:42.400Z,39.73
2022-09-05T16:50:38.635Z,39.85
2022-09-05T16:51:41.044Z,40.27
2022-09-05T16:52:46.227Z,37.12
2022-09-05T16:53:53.343Z,36.32
2022-09-05T16:54:48.741Z,36.12
2022-09-05T16:55:51.255Z,34.11
2022-09-05T16:56:55.357Z,35.75
2022-09-05T16:57:57.865Z,34.94
2022-09-05T16:59:00.550Z,35.40
2022-09-05T17:00:04.647Z,34.86
2022-09-05T17:01:07.133Z,33.60
2022-09-05T17:02:09.665Z,33.24
2022-09-05T17:03:12.035Z,33.98
2022-09-05T17:04:15.928Z,35.44
2022-09-05T17:05:17.370Z,34.02
2022-09-05T17:06:26.012Z,33.85
2022-09-05T17:07:25.511Z,34.09
2022-09-05T17:08:28.028Z,34.73
2022-09-05T17:09:30.462Z,33.87
2022-09-05T17:10:32.974Z,33.10
2022-09-05T17:11:35.490Z,34.01
2022-09-05T17:12:38.030Z,32.92
2022-09-05T17:13:40.501Z,33.08
2022-09-05T17:14:44.592Z,35.52
2022-09-05T17:15:51.436Z,36.54
2022-09-05T17:16:49.542Z,33.62
2022-09-05T17:18:18.945Z,33.77
2022-09-05T17:18:56.022Z,36.89
2022-09-05T17:20:06.602Z,39.89
2022-09-05T17:21:02.565Z,39.68
2022-09-05T17:24:20.280Z,39.84
2022-09-05T17:25:04.099Z,40.01
2022-09-05T17:26:11.656Z,38.81
2022-09-05T17:29:21.650Z,35.38
2022-09-05T17:29:22.279Z,37.93
2022-09-05T17:29:22.747Z,37.76
2022-09-05T17:29:37.360Z,36.92
2022-09-05T17:30:20.728Z,38.09
2022-09-05T17:32:35.907Z,38.08
2022-09-05T17:33:44.683Z,37.43
2022-09-05T17:34:40.740Z,38.31
2022-09-05T17:35:43.194Z,38.62
2022-09-05T17:36:45.701Z,39.50
2022-09-05T17:37:48.176Z,39.99
2022-09-05T17:38:52.275Z,40.50
2022-09-05T17:39:54.712Z,40.91
2022-09-05T17:40:57.084Z,40.88
2022-09-05T17:41:59.625Z,40.78
2022-09-05T17:51:30.055Z,40.86
2022-09-05T17:52:34.246Z,41.02
2022-09-05T18:02:05.083Z,42.25
2022-09-05T18:03:07.608Z,42.93
2022-09-05T18:13:12.151Z,42.49
2022-09-05T18:22:13.116Z,44.53
2022-09-05T18:31:47.297Z,46.63
2022-09-05T18:41:21.583Z,48.28
2022-09-05T18:42:26.670Z,48.43
2022-09-05T18:51:57.315Z,49.48
2022-09-05T19:01:30.786Z,50.97
2022-09-05T19:11:09.256Z,52.84
2022-09-05T19:20:41.403Z,52.52
2022-09-05T19:35:14.145Z,52.39
2022-09-05T19:41:58.809Z,49.79
2022-09-05T19:49:21.954Z,49.96
2022-09-05T19:58:56.287Z,50.38
2022-09-05T20:08:30.242Z,52.57
2022-09-05T20:18:07.926Z,54.31
2022-09-05T20:27:37.948Z,56.06
2022-09-05T20:37:54.516Z,57.62
2022-09-05T20:49:28.730Z,59.06
2022-09-05T20:56:19.271Z,59.73
2022-09-05T21:05:48.024Z,59.50
2022-09-05T21:15:22.937Z,61.14
2022-09-05T21:24:55.812Z,61.46
2022-09-05T21:34:30.143Z,58.90
2022-09-05T21:47:36.754Z,61.82
2022-09-05T21:54:31.800Z,60.75
2022-09-05T22:03:18.652Z,61.37
2022-09-05T22:04:15.961Z,61.53
2022-09-05T22:13:49.154Z,63.67
2022-09-05T22:23:22.834Z,64.00
2022-09-05T22:32:58.792Z,61.74
2022-09-05T22:42:31.354Z,63.66
2022-09-05T22:52:05.902Z,64.07
2022-09-05T23:01:41.990Z,61.41
2022-09-05T23:11:14.270Z,62.88
2022-09-05T23:20:48.380Z,63.15
2022-09-05T23:30:22.497Z,64.41
2022-09-05T23:39:56.656Z,66.10
2022-09-05T23:49:32.869Z,63.67
2022-09-05T23:59:04.004Z,64.76
